Terminal Aerodrome Forecast
Issued by NWS

Home | Current Version | Previous Version | Text Only | Print | Product List | Glossary On
Versions: 1 2 3 4 5 6 7 8 9 10 11 12 13 14 15 16 17 18 19 20 21 22 23 24 25
000
FTUS46 KSEW 022300 RRA
TAFSEA
TAF
KSEA 022346Z 0300/0406 21012KT P6SM VCSH FEW020 BKN050
     FM030400 21010KT P6SM VCSH BKN030 OVC050
     FM030600 19007KT P6SM SCT030 BKN050
     FM031200 18004KT P6SM OVC020
     FM031800 23005KT P6SM BKN030
     FM032100 27004KT P6SM SCT040
     FM040000 33006KT P6SM FEW060=

USA.gov is the U.S. government's official web portal to all federal, state and local government web resources and services.